sensor_id;sensor_type;location;lat;lon;timestamp;P1;durP1;ratioP1;P2;durP2;ratioP2
52898;SDS011;38763;53.096;6.062;2023-06-19T00:02:06;11.25;;;7.55;;
52898;SDS011;38763;53.096;6.062;2023-06-19T00:04:31;12.13;;;7.53;;
52898;SDS011;38763;53.096;6.062;2023-06-19T00:06:59;9.50;;;6.95;;
52898;SDS011;38763;53.096;6.062;2023-06-19T00:09:25;11.55;;;7.15;;
52898;SDS011;38763;53.096;6.062;2023-06-19T00:11:51;9.90;;;7.00;;
52898;SDS011;38763;53.096;6.062;2023-06-19T00:14:16;11.30;;;7.53;;
52898;SDS011;38763;53.096;6.062;2023-06-19T00:16:42;9.48;;;6.35;;
52898;SDS011;38763;53.096;6.062;2023-06-19T00:19:08;9.73;;;6.72;;
52898;SDS011;38763;53.096;6.062;2023-06-19T00:21:35;9.88;;;7.30;;
52898;SDS011;38763;53.096;6.062;2023-06-19T00:24:02;9.25;;;7.30;;
52898;SDS011;38763;53.096;6.062;2023-06-19T00:26:28;9.88;;;7.25;;
52898;SDS011;38763;53.096;6.062;2023-06-19T00:28:54;9.88;;;6.50;;
52898;SDS011;38763;53.096;6.062;2023-06-19T00:31:20;9.43;;;7.25;;
52898;SDS011;38763;53.096;6.062;2023-06-19T00:33:45;9.13;;;6.40;;
52898;SDS011;38763;53.096;6.062;2023-06-19T00:36:13;14.32;;;7.00;;
52898;SDS011;38763;53.096;6.062;2023-06-19T00:38:40;9.73;;;6.60;;
52898;SDS011;38763;53.096;6.062;2023-06-19T00:41:06;9.20;;;6.78;;
52898;SDS011;38763;53.096;6.062;2023-06-19T00:43:33;8.85;;;6.82;;
52898;SDS011;38763;53.096;6.062;2023-06-19T00:45:59;11.52;;;6.70;;
52898;SDS011;38763;53.096;6.062;2023-06-19T00:48:29;9.98;;;6.50;;
52898;SDS011;38763;53.096;6.062;2023-06-19T00:50:56;10.38;;;6.68;;
52898;SDS011;38763;53.096;6.062;2023-06-19T00:53:23;9.02;;;6.53;;
52898;SDS011;38763;53.096;6.062;2023-06-19T00:55:50;11.05;;;6.82;;
52898;SDS011;38763;53.096;6.062;2023-06-19T00:58:19;10.43;;;6.53;;
52898;SDS011;38763;53.096;6.062;2023-06-19T01:00:46;10.48;;;6.53;;
52898;SDS011;38763;53.096;6.062;2023-06-19T01:03:13;10.55;;;6.55;;
52898;SDS011;38763;53.096;6.062;2023-06-19T01:05:39;9.00;;;6.60;;
52898;SDS011;38763;53.096;6.062;2023-06-19T01:10:59;9.45;;;6.88;;
52898;SDS011;38763;53.096;6.062;2023-06-19T01:16:01;11.35;;;6.60;;
52898;SDS011;38763;53.096;6.062;2023-06-19T01:18:29;9.43;;;6.25;;
52898;SDS011;38763;53.096;6.062;2023-06-19T01:20:57;9.02;;;6.35;;
52898;SDS011;38763;53.096;6.062;2023-06-19T01:23:33;9.32;;;6.55;;
52898;SDS011;38763;53.096;6.062;2023-06-19T01:25:59;8.38;;;6.22;;
52898;SDS011;38763;53.096;6.062;2023-06-19T01:28:24;9.07;;;6.43;;
52898;SDS011;38763;53.096;6.062;2023-06-19T01:30:51;8.98;;;6.20;;
52898;SDS011;38763;53.096;6.062;2023-06-19T01:33:20;8.65;;;6.50;;
52898;SDS011;38763;53.096;6.062;2023-06-19T01:35:51;9.00;;;6.50;;
52898;SDS011;38763;53.096;6.062;2023-06-19T01:38:18;10.63;;;6.32;;
52898;SDS011;38763;53.096;6.062;2023-06-19T01:40:45;11.80;;;6.97;;
52898;SDS011;38763;53.096;6.062;2023-06-19T01:43:13;9.95;;;6.30;;
52898;SDS011;38763;53.096;6.062;2023-06-19T01:45:40;9.68;;;6.40;;
52898;SDS011;38763;53.096;6.062;2023-06-19T01:48:07;9.00;;;6.38;;
52898;SDS011;38763;53.096;6.062;2023-06-19T01:50:33;9.95;;;6.32;;
52898;SDS011;38763;53.096;6.062;2023-06-19T01:52:59;8.98;;;6.00;;
52898;SDS011;38763;53.096;6.062;2023-06-19T01:55:24;8.30;;;6.10;;
52898;SDS011;38763;53.096;6.062;2023-06-19T01:57:50;9.13;;;6.10;;
52898;SDS011;38763;53.096;6.062;2023-06-19T02:00:16;12.43;;;6.57;;
52898;SDS011;38763;53.096;6.062;2023-06-19T02:02:42;10.50;;;6.72;;
52898;SDS011;38763;53.096;6.062;2023-06-19T02:05:08;10.48;;;6.68;;
52898;SDS011;38763;53.096;6.062;2023-06-19T02:07:34;10.68;;;6.88;;
52898;SDS011;38763;53.096;6.062;2023-06-19T02:10:00;10.23;;;6.47;;
52898;SDS011;38763;53.096;6.062;2023-06-19T02:12:25;9.73;;;6.85;;
52898;SDS011;38763;53.096;6.062;2023-06-19T02:14:51;11.52;;;6.80;;
52898;SDS011;38763;53.096;6.062;2023-06-19T02:17:16;11.43;;;6.82;;
52898;SDS011;38763;53.096;6.062;2023-06-19T02:19:42;10.65;;;6.60;;
52898;SDS011;38763;53.096;6.062;2023-06-19T02:22:08;10.25;;;6.43;;
52898;SDS011;38763;53.096;6.062;2023-06-19T02:24:34;10.02;;;6.50;;
52898;SDS011;38763;53.096;6.062;2023-06-19T02:27:02;9.48;;;6.57;;
52898;SDS011;38763;53.096;6.062;2023-06-19T02:29:27;9.45;;;6.72;;
52898;SDS011;38763;53.096;6.062;2023-06-19T02:31:55;9.85;;;7.05;;
52898;SDS011;38763;53.096;6.062;2023-06-19T02:34:20;10.18;;;6.88;;
52898;SDS011;38763;53.096;6.062;2023-06-19T02:36:49;9.38;;;6.75;;
52898;SDS011;38763;53.096;6.062;2023-06-19T02:39:15;10.75;;;6.57;;
52898;SDS011;38763;53.096;6.062;2023-06-19T02:41:41;10.02;;;7.10;;
52898;SDS011;38763;53.096;6.062;2023-06-19T02:44:10;10.32;;;6.90;;
52898;SDS011;38763;53.096;6.062;2023-06-19T02:46:37;9.15;;;6.57;;
52898;SDS011;38763;53.096;6.062;2023-06-19T02:49:02;13.95;;;6.82;;
52898;SDS011;38763;53.096;6.062;2023-06-19T02:51:28;11.00;;;6.82;;
52898;SDS011;38763;53.096;6.062;2023-06-19T02:53:54;13.55;;;7.20;;
52898;SDS011;38763;53.096;6.062;2023-06-19T02:56:19;8.20;;;6.05;;
52898;SDS011;38763;53.096;6.062;2023-06-19T02:58:45;9.73;;;6.85;;
52898;SDS011;38763;53.096;6.062;2023-06-19T03:01:11;9.55;;;6.53;;
52898;SDS011;38763;53.096;6.062;2023-06-19T03:03:36;10.50;;;6.65;;
52898;SDS011;38763;53.096;6.062;2023-06-19T03:06:05;10.82;;;6.65;;
52898;SDS011;38763;53.096;6.062;2023-06-19T03:08:35;10.13;;;6.88;;
52898;SDS011;38763;53.096;6.062;2023-06-19T03:11:02;10.32;;;6.13;;
52898;SDS011;38763;53.096;6.062;2023-06-19T03:13:33;10.70;;;7.00;;
52898;SDS011;38763;53.096;6.062;2023-06-19T03:16:08;9.50;;;6.85;;
52898;SDS011;38763;53.096;6.062;2023-06-19T03:18:34;12.00;;;7.40;;
52898;SDS011;38763;53.096;6.062;2023-06-19T03:20:59;10.95;;;6.97;;
52898;SDS011;38763;53.096;6.062;2023-06-19T03:23:25;11.07;;;6.60;;
52898;SDS011;38763;53.096;6.062;2023-06-19T03:25:51;10.25;;;6.75;;
52898;SDS011;38763;53.096;6.062;2023-06-19T03:28:16;11.52;;;6.60;;
52898;SDS011;38763;53.096;6.062;2023-06-19T03:30:42;10.00;;;6.95;;
52898;SDS011;38763;53.096;6.062;2023-06-19T03:33:08;9.85;;;6.47;;
52898;SDS011;38763;53.096;6.062;2023-06-19T03:35:33;10.18;;;6.07;;
52898;SDS011;38763;53.096;6.062;2023-06-19T03:37:59;8.68;;;5.47;;
52898;SDS011;38763;53.096;6.062;2023-06-19T03:40:24;8.23;;;4.97;;
52898;SDS011;38763;53.096;6.062;2023-06-19T03:42:50;8.52;;;4.30;;
52898;SDS011;38763;53.096;6.062;2023-06-19T03:45:16;6.80;;;3.80;;
52898;SDS011;38763;53.096;6.062;2023-06-19T03:47:41;6.25;;;3.55;;
52898;SDS011;38763;53.096;6.062;2023-06-19T03:50:07;6.72;;;3.47;;
52898;SDS011;38763;53.096;6.062;2023-06-19T03:52:35;5.80;;;3.17;;
52898;SDS011;38763;53.096;6.062;2023-06-19T03:55:04;4.85;;;2.95;;
52898;SDS011;38763;53.096;6.062;2023-06-19T03:57:30;6.40;;;2.72;;
52898;SDS011;38763;53.096;6.062;2023-06-19T03:59:56;5.78;;;2.90;;
52898;SDS011;38763;53.096;6.062;2023-06-19T04:02:21;6.00;;;2.83;;
52898;SDS011;38763;53.096;6.062;2023-06-19T04:04:47;4.95;;;3.00;;
52898;SDS011;38763;53.096;6.062;2023-06-19T04:07:13;7.57;;;2.92;;
52898;SDS011;38763;53.096;6.062;2023-06-19T04:09:39;5.43;;;2.80;;
52898;SDS011;38763;53.096;6.062;2023-06-19T04:12:05;5.53;;;2.90;;
52898;SDS011;38763;53.096;6.062;2023-06-19T04:14:31;5.53;;;2.85;;
52898;SDS011;38763;53.096;6.062;2023-06-19T04:16:56;5.72;;;2.72;;
52898;SDS011;38763;53.096;6.062;2023-06-19T04:19:22;6.07;;;2.88;;
52898;SDS011;38763;53.096;6.062;2023-06-19T04:21:47;6.78;;;2.70;;
52898;SDS011;38763;53.096;6.062;2023-06-19T04:24:13;6.22;;;2.80;;
52898;SDS011;38763;53.096;6.062;2023-06-19T04:26:39;4.63;;;2.88;;
52898;SDS011;38763;53.096;6.062;2023-06-19T04:29:05;4.75;;;2.63;;
52898;SDS011;38763;53.096;6.062;2023-06-19T04:31:32;5.63;;;2.78;;
52898;SDS011;38763;53.096;6.062;2023-06-19T04:33:58;6.85;;;3.40;;
52898;SDS011;38763;53.096;6.062;2023-06-19T04:36:24;8.60;;;3.28;;
52898;SDS011;38763;53.096;6.062;2023-06-19T04:38:49;5.28;;;3.00;;
52898;SDS011;38763;53.096;6.062;2023-06-19T04:41:17;6.88;;;3.55;;
52898;SDS011;38763;53.096;6.062;2023-06-19T04:43:42;4.75;;;3.08;;
52898;SDS011;38763;53.096;6.062;2023-06-19T04:46:08;5.20;;;2.92;;
52898;SDS011;38763;53.096;6.062;2023-06-19T04:48:34;5.63;;;3.03;;
52898;SDS011;38763;53.096;6.062;2023-06-19T04:51:02;4.95;;;2.90;;
52898;SDS011;38763;53.096;6.062;2023-06-19T04:53:28;6.65;;;3.28;;
52898;SDS011;38763;53.096;6.062;2023-06-19T04:55:53;8.50;;;3.40;;
52898;SDS011;38763;53.096;6.062;2023-06-19T04:58:20;7.40;;;3.10;;
52898;SDS011;38763;53.096;6.062;2023-06-19T05:00:47;6.70;;;3.60;;
52898;SDS011;38763;53.096;6.062;2023-06-19T05:03:17;5.80;;;3.75;;
52898;SDS011;38763;53.096;6.062;2023-06-19T05:05:43;7.57;;;4.10;;
52898;SDS011;38763;53.096;6.062;2023-06-19T05:08:09;7.25;;;3.80;;
52898;SDS011;38763;53.096;6.062;2023-06-19T05:10:35;6.50;;;3.97;;
52898;SDS011;38763;53.096;6.062;2023-06-19T05:13:00;9.32;;;3.78;;
52898;SDS011;38763;53.096;6.062;2023-06-19T05:15:27;6.60;;;4.10;;
52898;SDS011;38763;53.096;6.062;2023-06-19T05:17:53;5.78;;;4.00;;
52898;SDS011;38763;53.096;6.062;2023-06-19T05:20:19;6.07;;;3.85;;
52898;SDS011;38763;53.096;6.062;2023-06-19T05:22:45;6.95;;;4.32;;
52898;SDS011;38763;53.096;6.062;2023-06-19T05:25:10;6.05;;;4.10;;
52898;SDS011;38763;53.096;6.062;2023-06-19T05:27:36;8.52;;;4.70;;
52898;SDS011;38763;53.096;6.062;2023-06-19T05:30:02;7.55;;;4.30;;
52898;SDS011;38763;53.096;6.062;2023-06-19T05:32:29;8.15;;;4.63;;
52898;SDS011;38763;53.096;6.062;2023-06-19T05:34:55;9.27;;;5.93;;
52898;SDS011;38763;53.096;6.062;2023-06-19T05:37:21;10.60;;;5.50;;
52898;SDS011;38763;53.096;6.062;2023-06-19T05:39:47;9.20;;;5.78;;
52898;SDS011;38763;53.096;6.062;2023-06-19T05:42:13;8.82;;;6.10;;
52898;SDS011;38763;53.096;6.062;2023-06-19T05:44:39;11.70;;;7.63;;
52898;SDS011;38763;53.096;6.062;2023-06-19T05:47:05;13.60;;;8.85;;
52898;SDS011;38763;53.096;6.062;2023-06-19T05:49:31;16.50;;;10.25;;
52898;SDS011;38763;53.096;6.062;2023-06-19T05:51:56;13.48;;;9.93;;
52898;SDS011;38763;53.096;6.062;2023-06-19T05:54:25;16.55;;;12.02;;
52898;SDS011;38763;53.096;6.062;2023-06-19T05:56:51;18.95;;;11.60;;
52898;SDS011;38763;53.096;6.062;2023-06-19T05:59:17;18.20;;;11.95;;
52898;SDS011;38763;53.096;6.062;2023-06-19T06:01:43;19.80;;;13.40;;
52898;SDS011;38763;53.096;6.062;2023-06-19T06:04:09;19.95;;;13.95;;
52898;SDS011;38763;53.096;6.062;2023-06-19T06:06:35;22.30;;;13.82;;
52898;SDS011;38763;53.096;6.062;2023-06-19T06:09:00;17.73;;;13.57;;
52898;SDS011;38763;53.096;6.062;2023-06-19T06:11:26;18.70;;;13.75;;
52898;SDS011;38763;53.096;6.062;2023-06-19T06:13:51;19.80;;;13.30;;
52898;SDS011;38763;53.096;6.062;2023-06-19T06:16:17;21.50;;;13.82;;
52898;SDS011;38763;53.096;6.062;2023-06-19T06:18:44;20.13;;;14.30;;
52898;SDS011;38763;53.096;6.062;2023-06-19T06:21:10;19.45;;;13.88;;
52898;SDS011;38763;53.096;6.062;2023-06-19T06:23:37;17.83;;;13.15;;
52898;SDS011;38763;53.096;6.062;2023-06-19T06:26:05;21.02;;;13.75;;
52898;SDS011;38763;53.096;6.062;2023-06-19T06:28:31;23.55;;;15.75;;
52898;SDS011;38763;53.096;6.062;2023-06-19T06:30:56;24.40;;;15.23;;
52898;SDS011;38763;53.096;6.062;2023-06-19T06:33:22;28.38;;;16.50;;
52898;SDS011;38763;53.096;6.062;2023-06-19T06:35:48;28.98;;;16.77;;
52898;SDS011;38763;53.096;6.062;2023-06-19T06:38:14;31.70;;;18.67;;
52898;SDS011;38763;53.096;6.062;2023-06-19T06:40:40;34.33;;;19.73;;
52898;SDS011;38763;53.096;6.062;2023-06-19T06:43:07;38.15;;;20.13;;
52898;SDS011;38763;53.096;6.062;2023-06-19T06:45:33;38.47;;;20.90;;
52898;SDS011;38763;53.096;6.062;2023-06-19T06:47:59;36.17;;;20.08;;
52898;SDS011;38763;53.096;6.062;2023-06-19T06:50:25;38.83;;;21.30;;
52898;SDS011;38763;53.096;6.062;2023-06-19T06:52:51;41.35;;;20.92;;
52898;SDS011;38763;53.096;6.062;2023-06-19T06:55:16;37.83;;;21.00;;
52898;SDS011;38763;53.096;6.062;2023-06-19T06:57:42;35.97;;;20.52;;
52898;SDS011;38763;53.096;6.062;2023-06-19T07:00:08;40.30;;;21.55;;
52898;SDS011;38763;53.096;6.062;2023-06-19T07:02:37;38.35;;;20.08;;
52898;SDS011;38763;53.096;6.062;2023-06-19T07:05:04;38.25;;;20.20;;
52898;SDS011;38763;53.096;6.062;2023-06-19T07:07:31;28.63;;;16.38;;
52898;SDS011;38763;53.096;6.062;2023-06-19T07:09:57;31.33;;;18.33;;
52898;SDS011;38763;53.096;6.062;2023-06-19T07:12:22;30.65;;;17.73;;
52898;SDS011;38763;53.096;6.062;2023-06-19T07:14:48;35.03;;;18.58;;
52898;SDS011;38763;53.096;6.062;2023-06-19T07:17:14;34.75;;;18.48;;
52898;SDS011;38763;53.096;6.062;2023-06-19T07:19:39;35.58;;;18.83;;
52898;SDS011;38763;53.096;6.062;2023-06-19T07:22:05;33.75;;;17.38;;
52898;SDS011;38763;53.096;6.062;2023-06-19T07:24:31;32.15;;;18.42;;
52898;SDS011;38763;53.096;6.062;2023-06-19T07:26:56;34.13;;;18.17;;
52898;SDS011;38763;53.096;6.062;2023-06-19T07:29:22;37.03;;;17.98;;
52898;SDS011;38763;53.096;6.062;2023-06-19T07:31:48;30.92;;;17.20;;
52898;SDS011;38763;53.096;6.062;2023-06-19T07:34:13;31.73;;;16.98;;
52898;SDS011;38763;53.096;6.062;2023-06-19T07:36:39;25.92;;;16.23;;
52898;SDS011;38763;53.096;6.062;2023-06-19T07:39:05;24.50;;;14.55;;
52898;SDS011;38763;53.096;6.062;2023-06-19T07:41:30;22.13;;;13.00;;
52898;SDS011;38763;53.096;6.062;2023-06-19T07:43:56;21.77;;;12.48;;
52898;SDS011;38763;53.096;6.062;2023-06-19T07:46:21;20.80;;;12.55;;
52898;SDS011;38763;53.096;6.062;2023-06-19T07:48:47;20.42;;;12.75;;
52898;SDS011;38763;53.096;6.062;2023-06-19T07:51:12;21.77;;;11.93;;
52898;SDS011;38763;53.096;6.062;2023-06-19T07:53:38;22.98;;;12.10;;
52898;SDS011;38763;53.096;6.062;2023-06-19T07:56:04;22.33;;;12.50;;
52898;SDS011;38763;53.096;6.062;2023-06-19T07:58:30;21.75;;;13.93;;
52898;SDS011;38763;53.096;6.062;2023-06-19T08:00:56;24.48;;;13.65;;
52898;SDS011;38763;53.096;6.062;2023-06-19T08:03:21;21.95;;;14.55;;
52898;SDS011;38763;53.096;6.062;2023-06-19T08:05:49;23.10;;;15.23;;
52898;SDS011;38763;53.096;6.062;2023-06-19T08:08:14;24.70;;;15.32;;
52898;SDS011;38763;53.096;6.062;2023-06-19T08:10:40;21.83;;;14.70;;
52898;SDS011;38763;53.096;6.062;2023-06-19T08:13:06;21.58;;;14.02;;
52898;SDS011;38763;53.096;6.062;2023-06-19T08:15:32;19.88;;;12.75;;
52898;SDS011;38763;53.096;6.062;2023-06-19T08:17:57;19.25;;;11.93;;
52898;SDS011;38763;53.096;6.062;2023-06-19T08:20:23;20.17;;;12.00;;
52898;SDS011;38763;53.096;6.062;2023-06-19T08:22:49;19.65;;;11.70;;
52898;SDS011;38763;53.096;6.062;2023-06-19T08:25:14;16.85;;;10.95;;
52898;SDS011;38763;53.096;6.062;2023-06-19T08:27:40;19.85;;;11.48;;
52898;SDS011;38763;53.096;6.062;2023-06-19T08:30:06;18.23;;;11.35;;
52898;SDS011;38763;53.096;6.062;2023-06-19T08:32:32;14.52;;;9.77;;
52898;SDS011;38763;53.096;6.062;2023-06-19T08:34:59;17.08;;;10.07;;
52898;SDS011;38763;53.096;6.062;2023-06-19T08:37:25;18.08;;;9.55;;
52898;SDS011;38763;53.096;6.062;2023-06-19T08:39:50;17.42;;;8.82;;
52898;SDS011;38763;53.096;6.062;2023-06-19T08:42:16;14.70;;;9.23;;
52898;SDS011;38763;53.096;6.062;2023-06-19T08:44:42;14.45;;;8.40;;
52898;SDS011;38763;53.096;6.062;2023-06-19T08:47:07;14.27;;;8.55;;
52898;SDS011;38763;53.096;6.062;2023-06-19T08:49:35;13.40;;;9.13;;
52898;SDS011;38763;53.096;6.062;2023-06-19T08:52:01;15.50;;;8.38;;
52898;SDS011;38763;53.096;6.062;2023-06-19T08:54:28;14.10;;;9.23;;
52898;SDS011;38763;53.096;6.062;2023-06-19T08:56:54;15.05;;;9.02;;
52898;SDS011;38763;53.096;6.062;2023-06-19T08:59:20;15.48;;;8.88;;
52898;SDS011;38763;53.096;6.062;2023-06-19T09:01:46;16.00;;;9.68;;
52898;SDS011;38763;53.096;6.062;2023-06-19T09:04:25;18.40;;;9.60;;
52898;SDS011;38763;53.096;6.062;2023-06-19T09:09:22;16.15;;;10.35;;
52898;SDS011;38763;53.096;6.062;2023-06-19T09:14:34;16.83;;;10.80;;
52898;SDS011;38763;53.096;6.062;2023-06-19T09:17:05;16.73;;;10.70;;
52898;SDS011;38763;53.096;6.062;2023-06-19T09:19:33;18.55;;;11.68;;
52898;SDS011;38763;53.096;6.062;2023-06-19T09:22:02;17.58;;;11.18;;
52898;SDS011;38763;53.096;6.062;2023-06-19T09:24:39;16.40;;;10.65;;
52898;SDS011;38763;53.096;6.062;2023-06-19T09:27:13;17.15;;;11.05;;
52898;SDS011;38763;53.096;6.062;2023-06-19T09:29:44;16.55;;;10.35;;
52898;SDS011;38763;53.096;6.062;2023-06-19T09:32:34;18.05;;;11.18;;
52898;SDS011;38763;53.096;6.062;2023-06-19T09:35:00;18.90;;;10.70;;
52898;SDS011;38763;53.096;6.062;2023-06-19T09:37:26;17.65;;;10.45;;
52898;SDS011;38763;53.096;6.062;2023-06-19T09:39:54;17.13;;;10.98;;
52898;SDS011;38763;53.096;6.062;2023-06-19T09:42:31;18.50;;;10.68;;
52898;SDS011;38763;53.096;6.062;2023-06-19T09:44:59;15.80;;;10.70;;
52898;SDS011;38763;53.096;6.062;2023-06-19T09:47:36;17.85;;;11.23;;
52898;SDS011;38763;53.096;6.062;2023-06-19T09:50:03;17.67;;;11.35;;
52898;SDS011;38763;53.096;6.062;2023-06-19T09:52:31;21.25;;;10.30;;
52898;SDS011;38763;53.096;6.062;2023-06-19T09:54:57;17.70;;;10.60;;
52898;SDS011;38763;53.096;6.062;2023-06-19T09:57:23;16.15;;;10.80;;
52898;SDS011;38763;53.096;6.062;2023-06-19T09:59:53;19.00;;;10.40;;
52898;SDS011;38763;53.096;6.062;2023-06-19T10:02:25;19.05;;;10.30;;
52898;SDS011;38763;53.096;6.062;2023-06-19T10:04:53;20.08;;;11.40;;
52898;SDS011;38763;53.096;6.062;2023-06-19T10:07:23;19.40;;;10.68;;
52898;SDS011;38763;53.096;6.062;2023-06-19T10:10:07;18.42;;;11.23;;
52898;SDS011;38763;53.096;6.062;2023-06-19T10:12:35;19.73;;;11.82;;
52898;SDS011;38763;53.096;6.062;2023-06-19T10:17:50;20.50;;;12.47;;
52898;SDS011;38763;53.096;6.062;2023-06-19T10:20:35;17.27;;;11.18;;
52898;SDS011;38763;53.096;6.062;2023-06-19T10:23:06;18.63;;;12.15;;
52898;SDS011;38763;53.096;6.062;2023-06-19T10:25:36;21.98;;;12.88;;
52898;SDS011;38763;53.096;6.062;2023-06-19T10:28:03;21.08;;;12.30;;
52898;SDS011;38763;53.096;6.062;2023-06-19T10:30:33;23.33;;;13.80;;
52898;SDS011;38763;53.096;6.062;2023-06-19T10:32:59;19.63;;;12.52;;
52898;SDS011;38763;53.096;6.062;2023-06-19T10:35:28;19.08;;;11.82;;
52898;SDS011;38763;53.096;6.062;2023-06-19T10:37:53;18.38;;;11.90;;
52898;SDS011;38763;53.096;6.062;2023-06-19T10:40:19;17.13;;;12.20;;
52898;SDS011;38763;53.096;6.062;2023-06-19T10:42:45;18.48;;;12.38;;
52898;SDS011;38763;53.096;6.062;2023-06-19T10:45:12;17.73;;;11.40;;
52898;SDS011;38763;53.096;6.062;2023-06-19T10:47:42;18.65;;;10.55;;
52898;SDS011;38763;53.096;6.062;2023-06-19T10:50:12;16.90;;;10.90;;
52898;SDS011;38763;53.096;6.062;2023-06-19T10:52:41;18.70;;;12.60;;
52898;SDS011;38763;53.096;6.062;2023-06-19T10:55:08;18.52;;;11.52;;
52898;SDS011;38763;53.096;6.062;2023-06-19T10:57:34;20.73;;;12.35;;
52898;SDS011;38763;53.096;6.062;2023-06-19T10:59:59;17.35;;;11.68;;
52898;SDS011;38763;53.096;6.062;2023-06-19T11:02:25;15.57;;;9.63;;
52898;SDS011;38763;53.096;6.062;2023-06-19T11:04:54;19.05;;;10.85;;
52898;SDS011;38763;53.096;6.062;2023-06-19T11:07:21;18.30;;;10.85;;
52898;SDS011;38763;53.096;6.062;2023-06-19T11:09:48;20.00;;;11.73;;
52898;SDS011;38763;53.096;6.062;2023-06-19T11:12:20;17.92;;;11.48;;
52898;SDS011;38763;53.096;6.062;2023-06-19T11:14:47;20.98;;;12.43;;
52898;SDS011;38763;53.096;6.062;2023-06-19T11:17:14;20.17;;;13.60;;
52898;SDS011;38763;53.096;6.062;2023-06-19T11:19:40;18.50;;;12.75;;
52898;SDS011;38763;53.096;6.062;2023-06-19T11:22:08;17.70;;;12.05;;
52898;SDS011;38763;53.096;6.062;2023-06-19T11:24:34;24.88;;;13.55;;
52898;SDS011;38763;53.096;6.062;2023-06-19T11:27:00;22.45;;;13.50;;
52898;SDS011;38763;53.096;6.062;2023-06-19T11:29:28;22.08;;;13.45;;
52898;SDS011;38763;53.096;6.062;2023-06-19T11:32:05;21.50;;;12.98;;
52898;SDS011;38763;53.096;6.062;2023-06-19T11:34:32;20.70;;;12.85;;
52898;SDS011;38763;53.096;6.062;2023-06-19T11:36:58;22.38;;;12.95;;
52898;SDS011;38763;53.096;6.062;2023-06-19T11:39:24;18.35;;;12.05;;
52898;SDS011;38763;53.096;6.062;2023-06-19T11:41:50;18.00;;;12.23;;
52898;SDS011;38763;53.096;6.062;2023-06-19T11:44:16;17.77;;;12.18;;
52898;SDS011;38763;53.096;6.062;2023-06-19T11:46:42;18.13;;;11.45;;
52898;SDS011;38763;53.096;6.062;2023-06-19T11:51:43;23.02;;;11.75;;
52898;SDS011;38763;53.096;6.062;2023-06-19T11:54:10;20.75;;;11.82;;
52898;SDS011;38763;53.096;6.062;2023-06-19T11:56:37;15.13;;;9.00;;
52898;SDS011;38763;53.096;6.062;2023-06-19T11:59:04;14.82;;;9.98;;
52898;SDS011;38763;53.096;6.062;2023-06-19T12:01:31;14.80;;;9.90;;
52898;SDS011;38763;53.096;6.062;2023-06-19T12:03:57;14.88;;;9.70;;
52898;SDS011;38763;53.096;6.062;2023-06-19T12:06:23;16.15;;;9.90;;
52898;SDS011;38763;53.096;6.062;2023-06-19T12:08:49;19.08;;;11.07;;
52898;SDS011;38763;53.096;6.062;2023-06-19T12:11:15;13.85;;;9.77;;
52898;SDS011;38763;53.096;6.062;2023-06-19T12:13:41;13.50;;;9.30;;
52898;SDS011;38763;53.096;6.062;2023-06-19T12:16:07;14.15;;;8.55;;
52898;SDS011;38763;53.096;6.062;2023-06-19T12:18:33;13.85;;;8.02;;
52898;SDS011;38763;53.096;6.062;2023-06-19T12:20:59;13.93;;;7.00;;
52898;SDS011;38763;53.096;6.062;2023-06-19T12:23:25;12.13;;;6.97;;
52898;SDS011;38763;53.096;6.062;2023-06-19T12:25:50;11.02;;;7.07;;
52898;SDS011;38763;53.096;6.062;2023-06-19T12:28:16;12.23;;;7.60;;
52898;SDS011;38763;53.096;6.062;2023-06-19T12:30:47;12.75;;;7.65;;
52898;SDS011;38763;53.096;6.062;2023-06-19T12:33:19;12.40;;;7.47;;
52898;SDS011;38763;53.096;6.062;2023-06-19T12:35:48;11.35;;;7.13;;
52898;SDS011;38763;53.096;6.062;2023-06-19T12:38:14;11.80;;;7.10;;
52898;SDS011;38763;53.096;6.062;2023-06-19T12:40:40;11.07;;;6.28;;
52898;SDS011;38763;53.096;6.062;2023-06-19T12:43:06;11.68;;;7.55;;
52898;SDS011;38763;53.096;6.062;2023-06-19T12:45:32;11.32;;;6.43;;
52898;SDS011;38763;53.096;6.062;2023-06-19T12:47:57;12.80;;;7.75;;
52898;SDS011;38763;53.096;6.062;2023-06-19T12:50:23;12.05;;;7.40;;
52898;SDS011;38763;53.096;6.062;2023-06-19T12:52:50;14.48;;;7.35;;
52898;SDS011;38763;53.096;6.062;2023-06-19T12:55:16;11.40;;;7.82;;
52898;SDS011;38763;53.096;6.062;2023-06-19T12:57:41;10.30;;;6.40;;
52898;SDS011;38763;53.096;6.062;2023-06-19T13:00:10;10.73;;;6.10;;
52898;SDS011;38763;53.096;6.062;2023-06-19T13:02:37;11.88;;;6.68;;
52898;SDS011;38763;53.096;6.062;2023-06-19T13:05:04;12.73;;;7.22;;
52898;SDS011;38763;53.096;6.062;2023-06-19T13:07:30;11.73;;;6.53;;
52898;SDS011;38763;53.096;6.062;2023-06-19T13:09:56;11.90;;;7.40;;
52898;SDS011;38763;53.096;6.062;2023-06-19T13:12:22;10.95;;;6.80;;
52898;SDS011;38763;53.096;6.062;2023-06-19T13:14:48;11.85;;;6.40;;
52898;SDS011;38763;53.096;6.062;2023-06-19T13:17:14;14.18;;;7.18;;
52898;SDS011;38763;53.096;6.062;2023-06-19T13:19:39;12.68;;;6.97;;
52898;SDS011;38763;53.096;6.062;2023-06-19T13:22:05;13.40;;;7.68;;
52898;SDS011;38763;53.096;6.062;2023-06-19T13:24:31;13.85;;;8.07;;
52898;SDS011;38763;53.096;6.062;2023-06-19T13:26:57;15.75;;;7.68;;
52898;SDS011;38763;53.096;6.062;2023-06-19T13:29:22;14.35;;;6.93;;
52898;SDS011;38763;53.096;6.062;2023-06-19T13:31:49;10.38;;;6.07;;
52898;SDS011;38763;53.096;6.062;2023-06-19T13:34:14;11.63;;;6.70;;
52898;SDS011;38763;53.096;6.062;2023-06-19T13:36:41;12.05;;;7.40;;
52898;SDS011;38763;53.096;6.062;2023-06-19T13:39:07;10.90;;;6.05;;
52898;SDS011;38763;53.096;6.062;2023-06-19T13:41:33;10.50;;;6.00;;
52898;SDS011;38763;53.096;6.062;2023-06-19T13:43:59;10.75;;;6.50;;
52898;SDS011;38763;53.096;6.062;2023-06-19T13:46:25;10.63;;;6.00;;
52898;SDS011;38763;53.096;6.062;2023-06-19T13:48:51;10.80;;;5.90;;
52898;SDS011;38763;53.096;6.062;2023-06-19T13:51:17;9.70;;;6.50;;
52898;SDS011;38763;53.096;6.062;2023-06-19T13:53:44;10.00;;;5.90;;
52898;SDS011;38763;53.096;6.062;2023-06-19T13:56:10;10.63;;;6.05;;
52898;SDS011;38763;53.096;6.062;2023-06-19T13:58:36;12.20;;;7.00;;
52898;SDS011;38763;53.096;6.062;2023-06-19T14:01:02;11.40;;;5.82;;
52898;SDS011;38763;53.096;6.062;2023-06-19T14:03:28;10.98;;;5.20;;
52898;SDS011;38763;53.096;6.062;2023-06-19T14:05:53;9.75;;;5.40;;
52898;SDS011;38763;53.096;6.062;2023-06-19T14:08:20;8.75;;;5.90;;
52898;SDS011;38763;53.096;6.062;2023-06-19T14:10:46;9.68;;;5.18;;
52898;SDS011;38763;53.096;6.062;2023-06-19T14:13:11;9.52;;;5.38;;
52898;SDS011;38763;53.096;6.062;2023-06-19T14:15:37;10.90;;;5.00;;
52898;SDS011;38763;53.096;6.062;2023-06-19T14:18:02;12.75;;;5.35;;
52898;SDS011;38763;53.096;6.062;2023-06-19T14:20:28;9.38;;;4.70;;
52898;SDS011;38763;53.096;6.062;2023-06-19T14:22:54;8.85;;;4.60;;
52898;SDS011;38763;53.096;6.062;2023-06-19T14:25:19;9.40;;;4.57;;
52898;SDS011;38763;53.096;6.062;2023-06-19T14:27:45;9.30;;;4.57;;
52898;SDS011;38763;53.096;6.062;2023-06-19T14:30:11;8.55;;;4.97;;
52898;SDS011;38763;53.096;6.062;2023-06-19T14:32:37;8.25;;;4.55;;
52898;SDS011;38763;53.096;6.062;2023-06-19T14:35:03;7.95;;;4.47;;
52898;SDS011;38763;53.096;6.062;2023-06-19T14:37:29;8.82;;;4.82;;
52898;SDS011;38763;53.096;6.062;2023-06-19T14:39:55;9.43;;;4.72;;
52898;SDS011;38763;53.096;6.062;2023-06-19T14:42:21;9.43;;;4.90;;
52898;SDS011;38763;53.096;6.062;2023-06-19T14:44:46;8.00;;;4.50;;
52898;SDS011;38763;53.096;6.062;2023-06-19T14:47:12;8.10;;;4.85;;